Time;durP1;ratioP1;P1;durP2;ratioP2;P2;SDS_P1;SDS_P2;PMS_P1;PMS_P2;Temp;Humidity;BMP_temperature;BMP_pressure;BME280_temperature;BME280_humidity;BME280_pressure;Samples;Min_cycle;Max_cycle;Signal;HPM_P1;HPM_P2
2021/04/29 00:01:54;;;;;;;5.92;3.50;;;;;;;2.54;71.54;101481.94;1765182;81;21678;-80
2021/04/29 00:04:31;;;;;;;6.00;3.27;;;;;;;2.49;71.55;101481.26;1767403;80;21287;-77
2021/04/29 00:07:06;;;;;;;4.37;2.98;;;;;;;2.47;71.53;101485.20;1774704;80;21212;-78
2021/04/29 00:09:39;;;;;;;6.10;3.15;;;;;;;2.43;71.55;101481.49;1770210;80;21341;-79
2021/04/29 00:12:12;;;;;;;8.40;3.90;;;;;;;2.39;71.69;101481.22;1764485;80;21332;-79
2021/04/29 00:14:45;;;;;;;10.55;5.00;;;;;;;2.36;71.89;101482.61;1755962;80;21229;-79
2021/04/29 00:17:18;;;;;;;10.78;5.00;;;;;;;2.35;71.96;101484.34;1770099;80;21322;-81
2021/04/29 00:19:54;;;;;;;11.00;4.65;;;;;;;2.32;71.89;101485.73;1769118;80;21286;-80
2021/04/29 00:22:27;;;;;;;11.73;4.40;;;;;;;2.30;71.93;101487.53;1765490;80;21281;-79
2021/04/29 00:24:59;;;;;;;11.43;5.15;;;;;;;2.29;71.98;101488.89;1734135;81;21271;-80
2021/04/29 00:27:34;;;;;;;12.68;5.53;;;;;;;2.28;72.12;101485.91;1765905;80;21313;-79
2021/04/29 00:30:08;;;;;;;13.83;5.78;;;;;;;2.27;72.26;101487.64;1763388;80;21400;-79
2021/04/29 00:32:42;;;;;;;15.00;6.17;;;;;;;2.29;72.36;101492.77;1762047;80;21349;-80
2021/04/29 00:35:16;;;;;;;13.55;5.70;;;;;;;2.26;72.26;101491.14;1769379;80;21404;-80
2021/04/29 00:37:49;;;;;;;11.80;6.10;;;;;;;2.24;72.28;101487.77;1768335;80;21591;-78
2021/04/29 00:40:22;;;;;;;10.95;4.75;;;;;;;2.22;72.16;101490.83;1769088;80;21882;-79
2021/04/29 00:42:55;;;;;;;8.35;4.83;;;;;;;2.21;72.12;101490.89;1763978;80;21253;-79
2021/04/29 00:45:28;;;;;;;11.60;4.90;;;;;;;2.20;72.09;101491.80;1764387;80;21220;-79
2021/04/29 00:48:01;;;;;;;8.60;5.37;;;;;;;2.21;72.09;101496.06;1742939;81;21176;-79
2021/04/29 00:50:35;;;;;;;11.30;5.28;;;;;;;2.20;72.06;101498.27;1751338;81;21730;-79
2021/04/29 00:53:08;;;;;;;10.75;5.25;;;;;;;2.18;72.02;101495.72;1755199;80;21342;-79
2021/04/29 00:55:41;;;;;;;16.55;6.58;;;;;;;2.16;71.91;101497.95;1747364;81;21283;-78
2021/04/29 00:58:13;;;;;;;18.17;7.25;;;;;;;2.13;71.93;101500.64;1773032;80;21297;-76
2021/04/29 01:00:46;;;;;;;22.30;9.13;;;;;;;2.11;72.01;101495.97;1747396;81;21171;-80
2021/04/29 01:03:21;;;;;;;24.92;9.35;;;;;;;2.11;71.98;101498.55;1739873;81;21298;-79
2021/04/29 01:05:57;;;;;;;22.32;8.90;;;;;;;2.09;72.00;101501.20;1760871;79;21256;-79
2021/04/29 01:08:35;;;;;;;22.10;8.80;;;;;;;2.06;72.00;101501.30;1760771;80;21181;-78
2021/04/29 01:11:19;;;;;;;19.77;7.97;;;;;;;2.06;72.06;101500.01;1754827;80;21381;-80
2021/04/29 01:13:56;;;;;;;20.00;8.95;;;;;;;2.04;72.03;101500.07;1768198;80;22345;-79
2021/04/29 01:16:31;;;;;;;23.12;8.25;;;;;;;2.03;72.15;101502.69;1763570;80;21269;-79
2021/04/29 01:19:05;;;;;;;17.20;7.53;;;;;;;2.03;72.20;101506.12;1763341;80;21314;-80
2021/04/29 01:21:38;;;;;;;19.50;7.85;;;;;;;2.00;72.18;101504.95;1730519;82;22720;-80
2021/04/29 01:24:15;;;;;;;14.90;7.15;;;;;;;1.99;72.05;101507.57;1736031;80;21326;-79
2021/04/29 01:26:54;;;;;;;15.18;6.60;;;;;;;1.97;71.97;101515.82;1761291;80;21916;-79
2021/04/29 01:29:32;;;;;;;14.13;5.45;;;;;;;1.95;71.91;101514.59;1755369;81;21174;-80
2021/04/29 01:32:07;;;;;;;14.25;6.78;;;;;;;1.92;71.84;101518.56;1761257;80;21324;-79
2021/04/29 01:34:42;;;;;;;11.10;5.08;;;;;;;1.88;71.83;101522.15;1759562;79;21203;-80
2021/04/29 01:37:14;;;;;;;12.40;5.47;;;;;;;1.85;71.77;101522.23;1757822;80;21142;-79
2021/04/29 01:39:49;;;;;;;10.65;5.70;;;;;;;1.83;71.78;101529.64;1772091;80;21720;-79
2021/04/29 01:42:21;;;;;;;9.68;5.28;;;;;;;1.79;71.81;101526.77;1770981;80;21211;-79
2021/04/29 01:44:55;;;;;;;16.55;5.08;;;;;;;1.77;71.90;101528.53;1772386;80;21214;-79
2021/04/29 01:47:28;;;;;;;10.72;4.47;;;;;;;1.74;71.82;101533.38;1740991;81;21187;-78
2021/04/29 01:50:07;;;;;;;10.65;4.78;;;;;;;1.70;71.69;101528.33;1749030;81;21260;-77
2021/04/29 01:52:40;;;;;;;8.55;4.47;;;;;;;1.65;71.56;101531.06;1751707;81;21216;-79
2021/04/29 01:55:15;;;;;;;9.83;4.83;;;;;;;1.54;71.58;101529.28;1770924;80;21354;-79
2021/04/29 01:57:50;;;;;;;15.10;5.87;;;;;;;1.54;71.58;101529.28;1769305;80;21885;-79
2021/04/29 02:00:23;;;;;;;;;;;;;;;1.50;71.77;101535.44;1772676;80;21865;-80
2021/04/29 02:02:55;;;;;;;13.58;6.78;;;;;;;1.45;71.96;101529.57;1771028;80;20212;-78
2021/04/29 02:05:30;;;;;;;9.90;5.28;;;;;;;1.43;72.24;101535.67;1754492;80;21199;-78
2021/04/29 02:08:04;;;;;;;12.75;6.03;;;;;;;1.46;72.37;101533.00;1771476;80;21333;-80
2021/04/29 02:10:37;;;;;;;16.52;6.72;;;;;;;1.48;72.44;101534.61;1769835;80;21203;-80
2021/04/29 02:13:14;;;;;;;12.65;5.95;;;;;;;1.49;72.42;101536.31;1750075;81;21282;-79
2021/04/29 02:15:54;;;;;;;14.58;6.20;;;;;;;1.50;72.53;101534.15;1749369;81;21302;-79
2021/04/29 02:18:27;;;;;;;11.85;6.00;;;;;;;1.54;72.64;101531.86;1717453;82;21349;-79
2021/04/29 02:21:00;;;;;;;;;;;;;;;1.58;72.65;101545.05;1708001;82;21728;-80
2021/04/29 02:23:35;;;;;;;11.40;5.75;;;;;;;1.61;72.61;101538.95;1689617;84;20239;-79
2021/04/29 02:26:08;;;;;;;7.15;4.22;;;;;;;1.65;72.66;101547.84;1768884;80;21295;-78
2021/04/29 02:28:43;;;;;;;13.70;6.03;;;;;;;1.72;72.66;101545.94;1772477;80;21169;-78
2021/04/29 02:31:16;;;;;;;9.63;5.33;;;;;;;1.81;72.66;101544.34;1748083;81;21319;-84
2021/04/29 02:33:48;;;;;;;15.70;5.50;;;;;;;1.90;72.60;101549.20;1763201;79;21790;-83
2021/04/29 02:36:24;;;;;;;13.62;4.97;;;;;;;1.99;72.43;101546.31;1771459;81;21953;-82
2021/04/29 02:38:58;;;;;;;16.70;5.80;;;;;;;2.09;72.26;101555.45;1756243;80;21292;-85
2021/04/29 02:41:31;;;;;;;17.40;7.10;;;;;;;2.20;72.29;101558.50;1763432;80;21254;-86
2021/04/29 02:44:05;;;;;;;10.58;5.30;;;;;;;2.32;72.12;101562.41;1755394;80;21780;-85
2021/04/29 02:46:43;;;;;;;20.17;7.58;;;;;;;2.43;71.95;101562.91;1729835;81;21907;-85
2021/04/29 02:49:16;;;;;;;22.98;8.40;;;;;;;2.55;71.79;101565.92;1726630;81;21290;-84
2021/04/29 02:51:49;;;;;;;23.75;9.03;;;;;;;2.72;71.46;101566.14;1748954;81;21389;-84
2021/04/29 02:54:22;;;;;;;21.25;9.30;;;;;;;2.89;71.03;101570.70;1738044;81;21255;-85
2021/04/29 02:56:57;;;;;;;25.25;10.35;;;;;;;3.05;70.54;101571.86;1724286;79;61908;-66
2021/04/29 02:59:30;;;;;;;29.98;11.70;;;;;;;3.24;69.99;101570.72;1706855;82;21277;-68
2021/04/29 03:02:03;;;;;;;32.67;11.47;;;;;;;3.40;69.38;101570.08;1707379;83;21301;-68
2021/04/29 03:04:37;;;;;;;28.62;10.48;;;;;;;3.60;68.71;101567.16;1748764;80;21265;-68
2021/04/29 03:07:10;;;;;;;22.13;9.30;;;;;;;3.81;68.06;101568.45;1755647;80;21835;-68
2021/04/29 03:09:43;;;;;;;25.70;8.57;;;;;;;4.04;67.44;101570.09;1788716;79;21181;-66
2021/04/29 03:12:17;;;;;;;20.25;7.95;;;;;;;4.19;66.82;101568.63;1758684;79;21271;-68
2021/04/29 03:14:49;;;;;;;15.18;6.53;;;;;;;4.33;66.24;101572.78;1752953;79;21292;-66
2021/04/29 03:17:22;;;;;;;15.58;6.15;;;;;;;4.45;65.86;101574.41;1759728;79;21216;-67
2021/04/29 03:19:56;;;;;;;18.00;6.70;;;;;;;4.59;65.41;101577.25;1765226;79;21284;-66
2021/04/29 03:22:29;;;;;;;13.32;6.12;;;;;;;4.81;64.79;101572.42;1784106;79;21811;-67
2021/04/29 03:25:02;;;;;;;17.02;6.62;;;;;;;5.05;63.90;101577.81;1768992;79;21173;-67
2021/04/29 03:27:35;;;;;;;17.30;7.40;;;;;;;5.26;63.32;101574.25;1759659;79;21788;-65
2021/04/29 03:30:08;;;;;;;15.08;6.65;;;;;;;5.47;62.70;101575.84;1759755;79;21826;-65
2021/04/29 03:32:41;;;;;;;17.42;6.65;;;;;;;5.66;61.99;101570.17;1762717;79;21542;-65
2021/04/29 03:35:15;;;;;;;10.00;5.80;;;;;;;5.84;61.45;101576.25;1769407;79;21788;-65
2021/04/29 03:37:48;;;;;;;11.45;5.45;;;;;;;6.05;60.75;101581.28;1748180;80;21316;-65
2021/04/29 03:40:22;;;;;;;10.08;5.62;;;;;;;6.38;59.91;101582.66;1756528;80;21799;-65
2021/04/29 03:42:57;;;;;;;12.95;5.70;;;;;;;6.91;58.75;101577.75;1762587;79;21673;-66
2021/04/29 03:45:30;;;;;;;11.70;6.20;;;;;;;7.43;57.32;101579.25;1774328;79;21265;-67
2021/04/29 03:48:04;;;;;;;12.23;5.62;;;;;;;7.98;56.01;101582.22;1785657;79;21744;-67
2021/04/29 03:50:36;;;;;;;;;;;;;;;8.74;54.19;101583.86;1777555;79;21319;-67
2021/04/29 03:53:09;;;;;;;9.45;5.25;;;;;;;9.48;52.30;101580.04;1764749;79;20182;-66
2021/04/29 03:55:42;;;;;;;14.40;5.85;;;;;;;10.26;50.94;101576.33;1752620;79;21306;-67
2021/04/29 03:58:15;;;;;;;10.98;5.87;;;;;;;11.04;48.87;101579.22;1748561;79;21201;-66
2021/04/29 04:00:48;;;;;;;10.80;5.12;;;;;;;11.71;46.79;101580.07;1766789;80;21311;-67
2021/04/29 04:03:21;;;;;;;12.88;5.78;;;;;;;12.38;45.13;101586.91;1767447;78;21696;-66
2021/04/29 04:05:54;;;;;;;9.03;4.67;;;;;;;13.01;43.60;101585.09;1766871;79;22137;-68
2021/04/29 04:08:27;;;;;;;12.30;5.67;;;;;;;13.67;42.15;101586.35;1738936;79;21293;-69
2021/04/29 04:11:00;;;;;;;7.53;4.67;;;;;;;14.22;40.55;101578.73;1765744;79;21276;-72
2021/04/29 04:13:34;;;;;;;10.43;4.87;;;;;;;14.77;39.55;101582.86;1759155;79;21272;-68
2021/04/29 04:16:11;;;;;;;10.72;4.47;;;;;;;15.34;38.19;101587.05;1765892;80;21200;-68
2021/04/29 05:36:38;;;;;;;11.30;5.03;;;;;;;26.29;20.42;101569.32;1818472;76;21201;-59
2021/04/29 05:39:12;;;;;;;5.97;3.92;;;;;;;26.81;19.46;101567.94;1776410;77;21686;-65
2021/04/29 05:41:45;;;;;;;7.45;4.40;;;;;;;27.21;18.84;101564.59;1785208;77;21316;-64
2021/04/29 05:44:18;;;;;;;5.92;4.50;;;;;;;27.42;18.45;101564.85;1790121;78;21296;-70
2021/04/29 05:46:52;;;;;;;6.20;3.55;;;;;;;27.54;18.67;101565.28;1726531;80;21343;-72
2021/04/29 05:49:25;;;;;;;;;;;;;;;27.64;18.61;101564.30;1783749;78;21353;-69
2021/04/29 05:51:58;;;;;;;7.30;4.58;;;;;;;27.82;18.60;101565.72;1778806;78;20704;-70
2021/04/29 05:54:31;;;;;;;7.03;4.15;;;;;;;28.03;18.14;101563.23;1788876;78;21304;-68
2021/04/29 05:57:05;;;;;;;8.70;4.03;;;;;;;28.21;18.10;101565.15;1788677;77;21311;-69
2021/04/29 05:59:39;;;;;;;6.62;4.00;;;;;;;28.38;17.88;101563.03;1786527;78;21906;-69
2021/04/29 06:02:13;;;;;;;6.92;4.12;;;;;;;28.42;18.24;101561.53;1787472;77;21291;-63
2021/04/29 06:04:47;;;;;;;11.03;4.35;;;;;;;28.62;17.96;101561.38;1792370;78;21752;-68
2021/04/29 06:07:20;;;;;;;8.55;4.30;;;;;;;28.89;17.96;101561.41;1791971;77;21209;-73
2021/04/29 06:09:53;;;;;;;;;;;;;;;29.12;17.59;101558.02;1793714;78;21293;-69
2021/04/29 06:12:26;;;;;;;8.35;4.78;;;;;;;29.47;17.21;101555.01;1782485;77;20288;-74
2021/04/29 06:15:00;;;;;;;8.68;4.85;;;;;;;29.70;16.95;101551.55;1786275;78;21169;-65
2021/04/29 06:17:33;;;;;;;7.25;3.30;;;;;;;30.03;17.05;101551.89;1781097;77;21484;-64
2021/04/29 06:20:07;;;;;;;4.47;2.98;;;;;;;30.35;16.30;101545.15;1783380;78;21296;-66
2021/04/29 06:22:40;;;;;;;3.25;2.20;;;;;;;30.79;15.35;101553.66;1783813;77;21477;-70
2021/04/29 06:25:12;;;;;;;;;;;;;;;31.07;14.96;101549.72;1783341;77;21291;-69
2021/04/29 06:27:45;;;;;;;3.85;2.62;;;;;;;31.27;14.67;101544.16;1784038;78;20208;-64
2021/04/29 06:30:21;;;;;;;6.72;2.40;;;;;;;31.33;14.72;101545.62;1783683;78;21224;-67
2021/04/29 06:32:54;;;;;;;4.03;2.20;;;;;;;31.33;14.48;101543.73;1757866;79;21283;-71
2021/04/29 06:35:28;;;;;;;5.80;1.92;;;;;;;31.53;14.17;101542.78;1759825;79;21332;-65
2021/04/29 06:38:02;;;;;;;2.72;1.50;;;;;;;31.70;13.75;101544.98;1754888;79;21303;-66
2021/04/29 06:40:35;;;;;;;11.28;2.52;;;;;;;31.79;12.86;101554.88;1760928;79;21315;-63
2021/04/29 06:43:08;;;;;;;3.15;1.30;;;;;;;31.76;12.81;101546.73;1761818;79;21319;-68
2021/04/29 06:45:41;;;;;;;2.72;1.60;;;;;;;31.73;12.24;101547.22;1757282;79;21331;-69
2021/04/29 06:48:15;;;;;;;2.80;1.67;;;;;;;31.64;12.42;101548.69;1752340;79;21962;-66
2021/04/29 06:50:49;;;;;;;1.42;1.20;;;;;;;31.60;12.77;101544.80;1762277;79;21309;-63
2021/04/29 06:53:22;;;;;;;1.98;1.27;;;;;;;31.74;12.49;101542.07;1759815;79;21321;-64
2021/04/29 06:55:56;;;;;;;1.57;1.10;;;;;;;32.03;12.59;101534.73;1760197;79;21315;-62
2021/04/29 06:58:28;;;;;;;;;;;;;;;32.37;12.75;101539.59;1757503;79;21187;-64
2021/04/29 07:01:02;;;;;;;3.63;1.50;;;;;;;32.78;12.41;101539.65;1765431;79;20300;-62
2021/04/29 07:03:37;;;;;;;3.67;1.57;;;;;;;33.04;11.76;101541.10;1722515;80;22504;-64
2021/04/29 07:06:10;;;;;;;1.70;1.32;;;;;;;33.41;11.19;101529.56;1757406;79;21299;-65
2021/04/29 07:08:44;;;;;;;2.92;1.62;;;;;;;33.62;11.29;101530.89;1757213;79;21192;-67
2021/04/29 07:11:17;;;;;;;20.92;2.22;;;;;;;33.53;11.59;101528.37;1753940;79;21830;-66
2021/04/29 07:13:51;;;;;;;5.83;1.35;;;;;;;33.33;10.41;101535.44;1752896;79;21327;-66
2021/04/29 07:16:24;;;;;;;2.60;1.02;;;;;;;33.00;10.00;101542.66;1750202;79;21236;-68
2021/04/29 07:18:57;;;;;;;8.35;3.02;;;;;;;32.98;10.10;101532.57;1759930;79;21343;-70
2021/04/29 07:21:32;;;;;;;1.75;1.07;;;;;;;32.81;10.79;101526.95;1757879;79;21276;-67
2021/04/29 07:24:05;;;;;;;2.12;1.20;;;;;;;32.89;11.19;101524.59;1753879;79;21283;-65
2021/04/29 07:26:39;;;;;;;6.33;1.47;;;;;;;32.87;11.01;101526.75;1750889;79;21293;-63
2021/04/29 07:29:12;;;;;;;0.85;0.82;;;;;;;32.97;10.93;101527.41;1754872;79;21308;-69
2021/04/29 07:31:45;;;;;;;1.87;1.07;;;;;;;32.93;10.00;101529.83;1748239;79;21186;-66
2021/04/29 07:34:20;;;;;;;1.27;0.78;;;;;;;32.32;10.20;101530.85;1753505;79;22607;-68
2021/04/29 07:36:53;;;;;;;2.25;0.90;;;;;;;31.58;10.21;101524.45;1708480;81;21330;-69
2021/04/29 07:39:26;;;;;;;1.67;1.02;;;;;;;30.87;10.80;101527.09;1761779;79;21362;-69
2021/04/29 07:41:58;;;;;;;;;;;;;;;30.75;11.00;101529.52;1760276;79;21861;-72
2021/04/29 07:44:31;;;;;;;1.35;1.00;;;;;;;30.81;11.04;101521.83;1753234;79;20207;-67
2021/04/29 07:47:03;;;;;;;;;;;;;;;31.02;11.20;101514.45;1759629;79;21264;-64
2021/04/29 07:49:38;;;;;;;0.85;0.85;;;;;;;31.51;10.66;101529.20;1763332;79;20306;-66
2021/04/29 07:52:11;;;;;;;0.95;0.70;;;;;;;31.70;10.22;101522.50;1762777;79;21884;-63
2021/04/29 07:54:44;;;;;;;4.42;1.07;;;;;;;31.57;10.71;101528.23;1761806;79;21323;-63
2021/04/29 07:57:18;;;;;;;;;;;;;;;31.16;10.42;101530.16;1762497;79;21319;-61
2021/04/29 07:59:50;;;;;;;3.58;1.10;;;;;;;30.83;10.50;101519.70;1766193;79;20280;-62
2021/04/29 08:02:24;;;;;;;2.25;0.98;;;;;;;30.62;11.04;101517.91;1758750;79;21130;-66
2021/04/29 08:04:57;;;;;;;1.90;0.93;;;;;;;30.39;10.95;101511.19;1762873;79;21198;-66
2021/04/29 08:07:31;;;;;;;1.17;0.80;;;;;;;30.25;11.23;101512.98;1756929;79;21341;-59
2021/04/29 08:10:08;;;;;;;1.95;1.02;;;;;;;29.78;10.97;101510.22;1765725;79;21706;-66
2021/04/29 08:12:42;;;;;;;3.25;0.80;;;;;;;29.59;11.58;101504.57;1730481;81;21303;-65
2021/04/29 08:15:14;;;;;;;;;;;;;;;29.62;11.58;101512.22;1712678;82;22204;-63
2021/04/29 08:17:47;;;;;;;1.42;1.07;;;;;;;29.67;11.28;101504.25;1712805;82;20215;-65
2021/04/29 08:20:20;;;;;;;2.08;0.90;;;;;;;29.69;11.39;101508.88;1757394;79;21352;-62
2021/04/29 08:22:54;;;;;;;0.98;0.70;;;;;;;29.22;11.61;101511.97;1760658;79;21887;-60
2021/04/29 08:25:26;;;;;;;;;;;;;;;28.76;12.07;101506.30;1762920;79;21506;-62
2021/04/29 08:28:01;;;;;;;1.82;0.90;;;;;;;28.62;12.67;101512.88;1754711;79;20231;-66
2021/04/29 08:30:34;;;;;;;1.62;0.90;;;;;;;28.37;12.75;101502.66;1758277;79;21312;-64
2021/04/29 08:33:07;;;;;;;7.00;1.80;;;;;;;28.40;13.01;101502.20;1759981;79;21660;-67
2021/04/29 08:35:41;;;;;;;2.90;0.90;;;;;;;28.44;12.96;101504.77;1757147;79;21471;-62
2021/04/29 08:38:13;;;;;;;;;;;;;;;28.50;12.91;101505.20;1761499;79;21363;-64
2021/04/29 08:40:46;;;;;;;3.47;1.55;;;;;;;28.79;12.73;101494.23;1763039;79;20288;-64
2021/04/29 08:43:19;;;;;;;;;;;;;;;28.92;12.93;101500.83;1752776;79;22572;-62
2021/04/29 08:45:52;;;;;;;4.03;1.40;;;;;;;28.70;12.84;101492.38;1752367;79;20306;-66
2021/04/29 08:48:27;;;;;;;1.30;1.00;;;;;;;28.37;12.64;101499.45;1760964;79;21317;-64
2021/04/29 08:51:03;;;;;;;2.33;0.72;;;;;;;28.34;12.65;101498.55;1753609;79;22483;-64
2021/04/29 08:53:37;;;;;;;3.30;1.05;;;;;;;28.59;12.64;101493.94;1758707;79;21240;-65
2021/04/29 08:56:11;;;;;;;1.82;0.98;;;;;;;28.71;12.79;101505.34;1765558;79;21291;-66
2021/04/29 08:58:45;;;;;;;0.82;0.78;;;;;;;28.30;12.50;101505.40;1761348;79;21280;-61
2021/04/29 09:01:18;;;;;;;1.42;0.80;;;;;;;27.62;12.99;101484.33;1756651;79;21296;-60
2021/04/29 09:03:51;;;;;;;1.25;0.70;;;;;;;27.22;13.29;101489.62;1753884;79;21323;-62
2021/04/29 09:06:33;;;;;;;2.77;1.10;;;;;;;26.93;13.71;101488.31;1761785;79;21302;-61
2021/04/29 09:09:06;;;;;;;2.67;1.05;;;;;;;26.42;13.58;101492.77;1752937;79;21205;-62
2021/04/29 09:11:54;;;;;;;1.32;0.68;;;;;;;25.98;14.29;101482.69;1755044;79;21620;-63
2021/04/29 09:14:37;;;;;;;1.32;0.85;;;;;;;25.64;14.32;101476.17;1754876;79;21319;-61
2021/04/29 09:17:10;;;;;;;1.00;0.85;;;;;;;25.34;14.51;101478.34;1759338;79;21230;-59
2021/04/29 09:19:48;;;;;;;2.02;0.80;;;;;;;24.69;14.63;101483.73;1758318;79;21833;-61
2021/04/29 09:22:23;;;;;;;3.17;1.05;;;;;;;24.14;15.41;101489.69;1759968;79;21620;-64
2021/04/29 09:24:56;;;;;;;1.60;1.00;;;;;;;23.50;15.95;101477.66;1755641;79;21256;-61
2021/04/29 09:27:31;;;;;;;1.45;0.90;;;;;;;23.32;16.32;101470.06;1758069;79;21311;-62
2021/04/29 09:30:05;;;;;;;;;;;;;;;23.20;16.44;101462.23;1760141;79;21673;-61
2021/04/29 09:32:38;;;;;;;1.80;0.93;;;;;;;23.00;16.83;101465.16;1762193;79;20230;-62
2021/04/29 09:35:22;;;;;;;1.60;0.85;;;;;;;22.54;16.95;101460.57;1757960;79;21334;-62
2021/04/29 09:37:59;;;;;;;1.45;0.90;;;;;;;22.26;17.24;101450.72;1759184;79;21822;-68
2021/04/29 09:40:34;;;;;;;2.27;1.15;;;;;;;22.04;17.84;101455.10;1764658;79;21303;-59
2021/04/29 09:43:08;;;;;;;1.60;0.90;;;;;;;21.80;18.50;101449.96;1758472;79;21380;-61
2021/04/29 09:45:41;;;;;;;6.37;1.30;;;;;;;21.34;18.83;101447.81;1769190;79;21352;-61
2021/04/29 09:48:20;;;;;;;4.47;1.00;;;;;;;20.81;18.87;101460.06;1754368;79;21331;-61
2021/04/29 09:50:51;;;;;;;1.42;0.80;;;;;;;20.40;19.79;101441.25;1759029;79;21310;-62
2021/04/29 09:53:24;;;;;;;4.85;1.30;;;;;;;20.13;20.20;101454.94;1760966;79;21661;-60
2021/04/29 09:56:05;;;;;;;1.30;1.10;;;;;;;19.76;20.51;101443.50;1754375;79;21181;-65
2021/04/29 09:58:37;;;;;;;1.57;1.00;;;;;;;19.44;20.84;101444.31;1732106;79;21295;-60
2021/04/29 10:01:10;;;;;;;1.30;1.20;;;;;;;19.10;21.05;101452.03;1761665;79;21326;-58
2021/04/29 10:03:45;;;;;;;4.55;1.10;;;;;;;18.87;21.05;101441.17;1751321;79;21257;-63
2021/04/29 10:06:18;;;;;;;1.62;0.90;;;;;;;18.67;21.39;101435.80;1757127;79;21305;-59
2021/04/29 10:08:51;;;;;;;13.18;2.62;;;;;;;18.56;21.40;101440.05;1755549;79;21198;-66
2021/04/29 10:11:25;;;;;;;3.30;1.07;;;;;;;18.56;21.38;101435.58;1755091;79;21354;-60
2021/04/29 10:13:59;;;;;;;4.30;1.40;;;;;;;18.61;22.21;101427.14;1763036;79;21240;-67
2021/04/29 10:16:33;;;;;;;;;;;;;;;18.61;22.62;101426.66;1754043;79;21201;-64
2021/04/29 10:19:05;;;;;;;1.60;1.07;;;;;;;18.66;22.10;101430.98;1757462;79;20242;-63
2021/04/29 10:21:39;;;;;;;2.00;1.17;;;;;;;18.58;21.54;101427.48;1762875;79;21205;-63
2021/04/29 10:24:12;;;;;;;1.50;1.00;;;;;;;18.48;21.76;101425.45;1759973;79;22132;-62
2021/04/29 10:26:45;;;;;;;1.00;0.80;;;;;;;18.50;21.53;101428.27;1755070;79;21908;-61
2021/04/29 10:29:20;;;;;;;3.92;1.30;;;;;;;18.52;21.75;101434.25;1700788;81;21187;-63
2021/04/29 10:31:58;;;;;;;3.12;0.95;;;;;;;18.35;21.75;101427.65;1718640;81;21205;-66
2021/04/29 10:34:50;;;;;;;3.00;1.00;;;;;;;18.20;21.38;101422.09;1723537;81;21321;-67
2021/04/29 10:37:27;;;;;;;4.05;0.95;;;;;;;17.99;22.34;101411.88;1754290;79;21320;-67
2021/04/29 10:40:03;;;;;;;2.15;1.00;;;;;;;17.95;22.50;101416.33;1752119;80;21240;-60
2021/04/29 10:42:47;;;;;;;2.25;1.10;;;;;;;17.91;22.01;101410.48;1751811;79;21308;-66
2021/04/29 10:45:20;;;;;;;1.52;1.05;;;;;;;17.85;21.99;101401.02;1759630;79;21231;-67
2021/04/29 10:48:08;;;;;;;1.00;0.62;;;;;;;17.89;22.32;101401.03;1760660;79;21291;-68
2021/04/29 10:50:52;;;;;;;3.42;0.93;;;;;;;17.96;22.09;101404.75;1758348;79;21211;-63
2021/04/29 10:53:35;;;;;;;1.70;1.20;;;;;;;17.89;22.56;101408.98;1754155;79;21326;-65
2021/04/29 10:56:19;;;;;;;2.02;0.85;;;;;;;17.78;22.73;101406.59;1759997;79;21306;-63
2021/04/29 10:58:52;;;;;;;3.77;0.98;;;;;;;17.69;22.51;101396.94;1727299;79;21331;-68
2021/04/29 11:01:26;;;;;;;1.80;0.98;;;;;;;17.60;22.17;101396.54;1751844;79;21528;-64
2021/04/29 11:04:02;;;;;;;3.27;0.90;;;;;;;17.54;22.06;101390.52;1759946;79;21331;-66
2021/04/29 11:06:35;;;;;;;0.98;0.78;;;;;;;17.48;22.11;101383.48;1759765;79;21311;-67
2021/04/29 11:09:29;;;;;;;3.33;1.30;;;;;;;17.50;22.11;101374.89;1728102;81;21307;-65
2021/04/29 11:12:03;;;;;;;2.75;1.00;;;;;;;17.48;22.09;101376.87;1754725;79;21861;-68
2021/04/29 11:14:45;;;;;;;1.67;0.90;;;;;;;17.41;22.78;101366.55;1763580;79;21280;-60
2021/04/29 11:17:22;;;;;;;4.83;2.42;;;;;;;17.43;22.67;101372.52;1760874;79;21507;-62
2021/04/29 11:19:58;;;;;;;6.10;4.78;;;;;;;17.42;22.64;101362.09;1760493;79;21323;-62
2021/04/29 11:22:34;;;;;;;9.85;2.35;;;;;;;17.45;23.21;101344.11;1763588;79;21355;-63
2021/04/29 11:25:10;;;;;;;1.82;0.93;;;;;;;17.51;24.15;101366.47;1758911;79;21272;-68
2021/04/29 11:27:43;;;;;;;1.12;0.90;;;;;;;17.44;23.67;101359.64;1756148;79;22587;-68
2021/04/29 11:30:17;;;;;;;0.63;0.63;;;;;;;17.39;23.52;101365.05;1766693;79;22516;-68
2021/04/29 11:33:02;;;;;;;1.60;1.00;;;;;;;17.37;23.42;101358.59;1760979;79;21429;-71
2021/04/29 11:35:38;;;;;;;;;;;;;;;17.36;23.35;101345.00;1755113;79;21325;-69
2021/04/29 11:38:13;;;;;;;2.08;1.15;;;;;;;17.37;23.53;101347.16;1756705;79;20286;-65
2021/04/29 11:40:46;;;;;;;1.80;1.00;;;;;;;17.38;23.79;101342.22;1753152;79;21350;-64
2021/04/29 11:43:19;;;;;;;1.10;1.00;;;;;;;17.43;24.02;101337.30;1751564;79;21184;-62
2021/04/29 11:45:53;;;;;;;;;;;;;;;17.51;24.93;101333.38;1739088;80;21836;-60
2021/04/29 11:48:30;;;;;;;3.80;0.83;;;;;;;17.57;25.15;101337.26;1761784;79;20275;-61
2021/04/29 11:51:05;;;;;;;1.45;1.07;;;;;;;17.58;25.31;101328.34;1765119;79;21294;-64
2021/04/29 11:53:39;;;;;;;1.90;1.00;;;;;;;17.60;24.52;101331.66;1759204;79;21143;-63
2021/04/29 11:56:14;;;;;;;3.55;1.40;;;;;;;17.60;24.13;101331.66;1759376;79;21293;-64
2021/04/29 11:59:02;;;;;;;1.77;1.00;;;;;;;17.55;24.46;101319.38;1728390;81;21306;-61
2021/04/29 12:01:34;;;;;;;2.22;1.27;;;;;;;17.50;25.03;101321.14;1711709;82;21394;-64
2021/04/29 12:04:22;;;;;;;1.92;0.98;;;;;;;17.48;24.50;101320.47;1759329;79;21224;-67
2021/04/29 12:06:57;;;;;;;3.08;1.07;;;;;;;17.46;24.47;101320.60;1760229;79;21708;-65
2021/04/29 12:09:31;;;;;;;1.95;1.07;;;;;;;17.42;24.70;101319.74;1757710;79;21333;-66
2021/04/29 12:12:17;;;;;;;1.10;1.00;;;;;;;17.40;24.15;101323.05;1764298;79;21324;-66
2021/04/29 12:14:55;;;;;;;1.92;1.10;;;;;;;17.31;23.66;101329.27;1756486;79;21315;-65
2021/04/29 12:17:29;;;;;;;2.08;1.12;;;;;;;17.23;23.81;101319.92;1758133;79;21370;-65
2021/04/29 12:20:03;;;;;;;5.40;1.00;;;;;;;17.24;24.34;101329.54;1763656;79;21331;-63
2021/04/29 12:22:36;;;;;;;1.87;1.20;;;;;;;17.22;23.59;101325.70;1759829;79;21336;-64
2021/04/29 12:25:20;;;;;;;1.37;0.90;;;;;;;17.17;23.19;101318.71;1735099;79;21299;-64
2021/04/29 12:27:54;;;;;;;1.52;1.12;;;;;;;17.15;23.23;101317.20;1756866;79;21300;-69
2021/04/29 12:30:29;;;;;;;4.12;2.02;;;;;;;17.10;23.71;101316.34;1752753;79;21201;-66
2021/04/29 12:33:03;;;;;;;3.95;1.20;;;;;;;17.09;24.17;101316.50;1757828;79;21209;-59
2021/04/29 12:35:37;;;;;;;2.62;1.00;;;;;;;17.12;24.62;101324.98;1724988;79;21216;-60
2021/04/29 12:38:11;;;;;;;1.25;1.00;;;;;;;17.10;23.73;101306.27;1763643;79;21827;-61
2021/04/29 12:40:45;;;;;;;2.15;1.42;;;;;;;17.08;23.67;101308.21;1756555;78;22563;-60
2021/04/29 12:43:25;;;;;;;1.27;1.00;;;;;;;17.07;23.87;101298.63;1761967;79;21862;-62
2021/04/29 12:45:57;;;;;;;2.55;0.93;;;;;;;17.05;23.95;101291.34;1768826;79;21306;-66
2021/04/29 12:48:44;;;;;;;3.45;0.90;;;;;;;17.03;23.91;101295.44;1758363;79;22519;-66
2021/04/29 12:51:20;;;;;;;5.00;1.40;;;;;;;17.04;24.66;101289.67;1767657;79;21341;-62
2021/04/29 12:54:02;;;;;;;2.60;1.40;;;;;;;17.04;24.41;101291.83;1730380;79;21331;-60
2021/04/29 12:56:37;;;;;;;1.95;1.40;;;;;;;17.06;24.65;101289.02;1755854;79;21216;-65
2021/04/29 12:59:17;;;;;;;2.15;1.10;;;;;;;17.08;24.35;101278.63;1755892;79;21319;-65
2021/04/29 13:02:03;;;;;;;1.90;1.40;;;;;;;17.07;24.01;101283.59;1758118;79;21778;-67
2021/04/29 13:04:39;;;;;;;4.15;1.40;;;;;;;17.04;24.27;101277.27;1740915;79;21704;-64
2021/04/29 13:07:12;;;;;;;2.60;1.55;;;;;;;17.08;24.29;101277.78;1756478;79;21143;-63
2021/04/29 13:09:49;;;;;;;2.93;1.43;;;;;;;17.11;24.50;101273.52;1735628;79;21268;-63
2021/04/29 13:12:21;;;;;;;4.67;1.85;;;;;;;17.10;24.98;101275.33;1760325;79;21195;-63
2021/04/29 13:14:59;;;;;;;2.30;1.30;;;;;;;17.08;25.31;101275.98;1760889;79;21432;-65
2021/04/29 13:17:40;;;;;;;1.80;1.20;;;;;;;17.08;25.10;101265.39;1759441;79;21354;-67
2021/04/29 13:20:16;;;;;;;5.50;1.77;;;;;;;17.06;24.69;101263.40;1764193;79;21287;-67
2021/04/29 13:22:50;;;;;;;3.22;1.57;;;;;;;17.04;24.67;101265.37;1759217;79;21310;-64